createdAt,value
2022-11-10T00:01:07.569Z,77.81
2022-11-10T00:03:58.340Z,77.92
2022-11-10T00:06:47.885Z,77.87
2022-11-10T00:09:36.224Z,77.73
2022-11-10T00:12:24.931Z,78.04
2022-11-10T00:15:30.796Z,77.71
2022-11-10T00:18:18.674Z,77.33
2022-11-10T00:21:10.741Z,77.54
2022-11-10T00:23:58.425Z,77.19
2022-11-10T00:26:46.193Z,78.37
2022-11-10T00:29:33.969Z,77.96
2022-11-10T00:32:22.051Z,77.98
2022-11-10T00:35:10.362Z,77.94
2022-11-10T00:37:59.808Z,77.90
2022-11-10T00:40:48.568Z,77.57
2022-11-10T00:43:36.517Z,77.73
2022-11-10T00:46:24.235Z,77.70
2022-11-10T00:49:12.115Z,77.56
2022-11-10T00:52:00.053Z,76.67
2022-11-10T00:54:49.520Z,77.94
2022-11-10T00:57:37.334Z,77.09
2022-11-10T01:00:25.705Z,77.54
2022-11-10T01:03:16.253Z,78.28
2022-11-10T01:06:07.868Z,77.92
2022-11-10T01:08:55.797Z,77.35
2022-11-10T01:11:45.214Z,77.32
2022-11-10T01:14:32.969Z,76.83
2022-11-10T01:17:20.956Z,77.48
2022-11-10T01:20:09.814Z,76.70
2022-11-10T01:22:57.574Z,77.02
2022-11-10T01:25:45.292Z,76.71
2022-11-10T01:28:35.554Z,78.04
2022-11-10T01:31:24.125Z,77.89
2022-11-10T01:34:11.956Z,76.92
2022-11-10T01:36:59.605Z,75.95
2022-11-10T01:39:47.423Z,76.66
2022-11-10T01:42:47.130Z,76.46
2022-11-10T01:45:55.123Z,76.61
2022-11-10T01:48:47.397Z,76.70
2022-11-10T01:51:41.185Z,76.88
2022-11-10T01:54:32.023Z,77.66
2022-11-10T01:57:20.103Z,77.31
2022-11-10T02:00:09.224Z,77.64
2022-11-10T02:03:06.892Z,76.97
2022-11-10T02:05:54.429Z,76.34
2022-11-10T02:08:44.167Z,76.04
2022-11-10T02:11:33.335Z,75.95
2022-11-10T02:14:21.061Z,76.44
2022-11-10T02:17:09.017Z,76.09
2022-11-10T02:20:02.319Z,76.59
2022-11-10T02:22:51.488Z,75.58
2022-11-10T02:25:39.723Z,75.83
2022-11-10T02:28:28.554Z,76.61
2022-11-10T02:31:16.409Z,76.63
2022-11-10T02:34:04.607Z,76.54
2022-11-10T02:36:52.255Z,76.97
2022-11-10T02:39:41.281Z,76.17
2022-11-10T02:42:28.820Z,76.87
2022-11-10T02:45:16.542Z,76.69
2022-11-10T02:48:04.629Z,75.69
2022-11-10T02:50:52.029Z,76.46
2022-11-10T02:53:39.902Z,76.78
2022-11-10T02:56:28.775Z,77.39
2022-11-10T02:59:16.975Z,76.79
2022-11-10T03:02:04.345Z,76.77
2022-11-10T03:04:52.307Z,76.64
2022-11-10T03:07:40.213Z,77.08
2022-11-10T03:10:29.559Z,77.76
2022-11-10T03:13:18.721Z,77.23
2022-11-10T03:16:07.257Z,77.85
2022-11-10T03:18:54.974Z,77.53
2022-11-10T03:21:42.906Z,76.96
2022-11-10T03:24:30.609Z,77.40
2022-11-10T03:27:18.273Z,77.36
2022-11-10T03:34:46.113Z,78.22
2022-11-10T03:37:34.095Z,77.43
2022-11-10T03:40:22.416Z,77.15
2022-11-10T03:43:12.661Z,77.45
2022-11-10T03:46:00.047Z,76.54
2022-11-10T03:48:53.269Z,77.73
2022-11-10T03:51:42.837Z,76.88
2022-11-10T03:54:30.850Z,77.43
2022-11-10T03:57:18.471Z,78.14
2022-11-10T04:00:07.550Z,76.64
2022-11-10T04:02:54.879Z,77.59
2022-11-10T04:06:00.332Z,77.69
2022-11-10T04:09:01.562Z,77.99
2022-11-10T04:12:06.906Z,78.27
2022-11-10T04:15:11.819Z,78.36
2022-11-10T04:18:20.279Z,78.09
2022-11-10T04:21:07.764Z,77.38
2022-11-10T04:23:56.868Z,77.50
2022-11-10T04:26:45.537Z,78.23
2022-11-10T04:29:33.133Z,77.65
2022-11-10T04:32:21.033Z,77.64
2022-11-10T04:35:10.192Z,77.36
2022-11-10T04:37:57.999Z,77.88
2022-11-10T04:40:47.081Z,77.99
2022-11-10T04:43:34.633Z,76.74
2022-11-10T04:46:25.820Z,77.78
2022-11-10T04:49:13.497Z,77.21
2022-11-10T04:52:01.475Z,77.61
2022-11-10T04:54:49.432Z,76.48
2022-11-10T04:57:38.549Z,76.69
2022-11-10T05:00:26.206Z,76.26
2022-11-10T05:03:14.403Z,76.47
2022-11-10T05:06:01.957Z,76.60
2022-11-10T05:08:50.041Z,76.43
2022-11-10T05:11:37.621Z,76.73
2022-11-10T05:14:26.966Z,75.72
2022-11-10T05:17:14.675Z,75.56
2022-11-10T05:20:02.358Z,76.01
2022-11-10T05:23:04.813Z,76.56
2022-11-10T05:25:52.639Z,76.28
2022-11-10T05:28:41.302Z,76.73
2022-11-10T05:31:30.718Z,76.69
2022-11-10T05:34:18.661Z,75.86
2022-11-10T05:37:06.902Z,76.33
2022-11-10T05:39:54.516Z,76.00
2022-11-10T05:42:45.248Z,76.16
2022-11-10T05:45:32.607Z,76.16
2022-11-10T05:48:22.096Z,76.36
2022-11-10T05:51:09.768Z,75.59
2022-11-10T05:53:58.049Z,76.86
2022-11-10T05:56:45.982Z,76.06
2022-11-10T05:59:33.746Z,76.17
2022-11-10T06:02:21.424Z,76.37
2022-11-10T06:05:11.419Z,76.37
2022-11-10T06:07:59.784Z,75.75
2022-11-10T06:10:47.606Z,75.63
2022-11-10T06:13:35.606Z,75.85
2022-11-10T06:16:23.630Z,76.93
2022-11-10T06:19:11.297Z,77.70
2022-11-10T06:22:06.448Z,78.58
2022-11-10T06:24:55.347Z,77.29
2022-11-10T06:27:45.904Z,78.38
2022-11-10T06:30:35.001Z,77.93
2022-11-10T06:33:23.198Z,78.63
2022-11-10T06:36:11.104Z,78.25
2022-11-10T06:39:00.616Z,78.11
2022-11-10T06:41:48.288Z,77.66
2022-11-10T06:44:36.130Z,77.60
2022-11-10T06:47:23.765Z,77.20
2022-11-10T06:50:12.000Z,76.97
2022-11-10T06:53:00.416Z,77.23
2022-11-10T06:55:49.602Z,77.05
2022-11-10T06:58:37.558Z,75.67
2022-11-10T07:01:26.771Z,75.51
2022-11-10T07:04:20.413Z,75.19
2022-11-10T07:07:09.245Z,76.56
2022-11-10T07:09:56.719Z,75.77
2022-11-10T07:12:45.776Z,76.37
2022-11-10T07:15:33.741Z,75.95
2022-11-10T07:18:21.425Z,75.96
2022-11-10T07:21:09.341Z,75.30
2022-11-10T07:23:57.003Z,76.25
2022-11-10T07:26:45.123Z,77.16
2022-11-10T07:29:34.670Z,76.11
2022-11-10T07:32:22.062Z,75.71
2022-11-10T07:35:10.370Z,76.05
2022-11-10T07:37:58.805Z,75.97
2022-11-10T07:40:46.862Z,74.80
2022-11-10T07:43:34.435Z,74.50
2022-11-10T07:46:23.698Z,73.70
2022-11-10T07:49:11.161Z,74.38
2022-11-10T07:51:59.070Z,73.88
2022-11-10T07:54:46.552Z,73.75
2022-11-10T07:57:34.984Z,73.85
2022-11-10T08:00:22.830Z,73.73
2022-11-10T08:03:15.880Z,72.65
2022-11-10T08:06:03.690Z,72.22
2022-11-10T08:08:51.458Z,71.46
2022-11-10T08:11:38.980Z,71.53
2022-11-10T08:14:27.051Z,68.88
2022-11-10T08:17:14.394Z,69.02
2022-11-10T08:20:04.750Z,68.61
2022-11-10T08:22:59.052Z,68.11
2022-11-10T08:25:48.081Z,67.74
2022-11-10T08:28:35.367Z,68.13
2022-11-10T08:31:23.235Z,69.57
2022-11-10T08:34:11.264Z,69.25
2022-11-10T08:37:00.440Z,68.44
2022-11-10T08:39:47.908Z,67.60
2022-11-10T08:42:36.001Z,68.30
2022-11-10T08:45:23.933Z,67.33
2022-11-10T08:48:14.017Z,68.80
2022-11-10T08:51:02.798Z,68.73
2022-11-10T08:53:52.148Z,68.35
2022-11-10T08:56:39.891Z,67.77
2022-11-10T08:59:27.676Z,68.24
2022-11-10T09:02:15.070Z,68.68
2022-11-10T09:05:02.836Z,67.82
2022-11-10T09:07:51.650Z,67.32
2022-11-10T09:10:43.467Z,68.25
2022-11-10T09:13:31.733Z,67.05
2022-11-10T09:16:19.942Z,67.47
2022-11-10T09:19:07.641Z,67.75
2022-11-10T09:21:55.562Z,67.48
2022-11-10T09:24:43.561Z,67.89
2022-11-10T09:27:36.041Z,67.67
2022-11-10T09:30:23.903Z,66.78
2022-11-10T09:33:12.121Z,66.09
2022-11-10T09:36:00.674Z,63.78
2022-11-10T09:38:48.986Z,62.30
2022-11-10T09:41:41.686Z,58.43
2022-11-10T09:44:36.156Z,55.89
2022-11-10T09:47:55.649Z,52.72
2022-11-10T09:50:42.961Z,51.71
2022-11-10T09:53:38.201Z,54.94
2022-11-10T09:56:32.764Z,57.12
2022-11-10T09:59:27.634Z,59.15
2022-11-10T10:02:25.128Z,60.84
2022-11-10T10:05:35.542Z,63.18
2022-11-10T10:08:33.096Z,61.66
2022-11-10T10:11:31.171Z,63.36
2022-11-10T10:14:46.926Z,64.97
2022-11-10T10:17:44.634Z,63.60
2022-11-10T10:20:41.296Z,62.39
2022-11-10T10:23:54.449Z,61.15
2022-11-10T10:26:54.496Z,57.45
2022-11-10T10:29:45.376Z,54.68
2022-11-10T10:32:36.295Z,48.55
2022-11-10T10:35:24.364Z,46.13
2022-11-10T10:38:24.035Z,47.38
2022-11-10T10:41:20.976Z,42.19
2022-11-10T10:44:14.493Z,45.13
2022-11-10T10:47:04.514Z,49.59
2022-11-10T10:49:54.980Z,53.75
2022-11-10T10:52:42.625Z,55.72
2022-11-10T10:55:32.284Z,58.45
2022-11-10T10:58:26.848Z,62.99
2022-11-10T11:01:27.595Z,62.98
2022-11-10T11:04:30.756Z,63.60
2022-11-10T11:07:26.023Z,63.48
2022-11-10T11:10:21.218Z,65.19
2022-11-10T11:13:17.209Z,65.56
2022-11-10T11:16:07.786Z,64.69
2022-11-10T11:18:55.882Z,63.90
2022-11-10T11:21:56.598Z,64.20
2022-11-10T11:24:52.785Z,65.87
2022-11-10T11:27:49.289Z,65.44
2022-11-10T11:30:48.351Z,65.53
2022-11-10T11:33:42.985Z,64.68
2022-11-10T11:36:41.567Z,62.36
2022-11-10T11:39:39.346Z,53.37
2022-11-10T11:42:40.755Z,56.10
2022-11-10T11:45:38.039Z,60.32
2022-11-10T11:48:45.310Z,63.37
2022-11-10T11:51:40.915Z,63.89
2022-11-10T11:54:35.956Z,63.18
2022-11-10T11:57:40.436Z,61.70
2022-11-10T12:00:41.461Z,54.99
2022-11-10T12:03:48.817Z,57.86
2022-11-10T12:06:48.883Z,60.54
2022-11-10T12:09:44.778Z,63.43
2022-11-10T12:13:08.009Z,63.91
2022-11-10T12:16:04.322Z,63.31
2022-11-10T12:19:04.707Z,63.37
2022-11-10T12:21:58.161Z,61.91
2022-11-10T12:24:55.209Z,61.60
2022-11-10T12:27:50.613Z,62.59
2022-11-10T12:30:40.710Z,63.51
2022-11-10T12:33:36.865Z,62.34
2022-11-10T12:36:28.893Z,50.98
2022-11-10T12:39:22.014Z,47.87
2022-11-10T12:42:15.964Z,46.08
2022-11-10T12:45:07.586Z,43.07
2022-11-10T12:47:56.343Z,41.12
2022-11-10T12:50:52.002Z,42.07
2022-11-10T12:53:43.023Z,40.84
2022-11-10T12:56:35.822Z,38.25
2022-11-10T12:59:35.671Z,40.42
2022-11-10T13:02:31.081Z,43.48
2022-11-10T13:05:28.519Z,50.81
2022-11-10T13:08:30.620Z,55.39
2022-11-10T13:11:28.758Z,57.92
2022-11-10T13:14:29.390Z,55.13
2022-11-10T13:17:56.686Z,51.38
2022-11-10T13:20:58.174Z,55.52
2022-11-10T13:24:21.234Z,52.56
2022-11-10T13:27:14.038Z,54.99
2022-11-10T13:30:02.515Z,52.70
2022-11-10T13:32:50.142Z,51.73
2022-11-10T13:35:55.897Z,51.83
2022-11-10T13:38:45.314Z,52.80
2022-11-10T13:41:35.762Z,54.39
2022-11-10T13:44:25.959Z,57.27
2022-11-10T13:47:44.558Z,59.40
2022-11-10T13:50:48.291Z,60.38
2022-11-10T13:53:48.841Z,60.51
2022-11-10T13:57:06.924Z,61.71
2022-11-10T13:59:57.556Z,61.91
2022-11-10T14:02:50.798Z,61.94
2022-11-10T14:06:13.713Z,61.63
2022-11-10T14:09:12.684Z,60.93
2022-11-10T14:12:05.295Z,61.53
2022-11-10T14:14:57.503Z,62.19
2022-11-10T14:17:50.714Z,63.75
2022-11-10T14:20:44.101Z,63.93
2022-11-10T14:23:38.166Z,65.00
2022-11-10T14:26:33.961Z,64.58
2022-11-10T14:29:31.911Z,64.36
2022-11-10T14:32:22.376Z,64.90
2022-11-10T14:35:21.660Z,63.93
2022-11-10T14:38:21.214Z,64.70
2022-11-10T14:41:18.649Z,64.78
2022-11-10T14:44:07.995Z,65.01
2022-11-10T14:46:56.739Z,66.49
2022-11-10T14:49:45.119Z,67.04
2022-11-10T14:52:33.262Z,66.84
2022-11-10T14:55:24.799Z,66.88
2022-11-10T14:58:15.869Z,68.47
2022-11-10T15:01:06.786Z,68.64
2022-11-10T15:03:55.938Z,69.16
2022-11-10T15:06:47.054Z,68.43
2022-11-10T15:09:35.584Z,69.34
2022-11-10T15:12:28.316Z,69.82
2022-11-10T15:15:24.392Z,69.43
2022-11-10T15:18:30.587Z,70.45
2022-11-10T15:21:20.472Z,69.71
2022-11-10T15:24:09.394Z,70.71
2022-11-10T15:26:57.836Z,70.27
2022-11-10T15:29:45.598Z,70.14
2022-11-10T15:32:36.817Z,71.20
2022-11-10T15:35:31.001Z,70.01
2022-11-10T15:38:31.362Z,70.54
2022-11-10T15:41:27.713Z,70.12
2022-11-10T15:44:17.417Z,71.36
2022-11-10T15:47:04.940Z,71.73
2022-11-10T15:49:52.891Z,71.98
2022-11-10T15:52:41.712Z,71.56
2022-11-10T15:55:31.010Z,71.97
2022-11-10T15:58:21.737Z,71.65
2022-11-10T16:01:13.302Z,72.17
2022-11-10T16:04:00.935Z,72.10
2022-11-10T16:06:49.437Z,71.82
2022-11-10T16:09:38.283Z,72.97
2022-11-10T16:12:26.328Z,73.09
2022-11-10T16:15:19.594Z,73.77
2022-11-10T16:18:13.179Z,73.02
2022-11-10T16:21:01.295Z,73.67
2022-11-10T16:23:49.226Z,73.31
2022-11-10T16:26:38.062Z,73.76
2022-11-10T16:29:26.154Z,74.40
2022-11-10T16:32:13.964Z,73.60
2022-11-10T16:35:01.934Z,72.19
2022-11-10T16:37:49.630Z,74.09
2022-11-10T16:40:38.493Z,75.31
2022-11-10T16:43:28.394Z,76.49
2022-11-10T16:46:20.976Z,75.87
2022-11-10T16:49:18.648Z,75.79
2022-11-10T16:52:15.372Z,74.87
2022-11-10T16:55:03.375Z,75.96
2022-11-10T16:57:51.489Z,76.09
2022-11-10T17:00:41.031Z,75.72
2022-11-10T17:03:32.799Z,76.14
2022-11-10T17:06:24.929Z,78.17
2022-11-10T17:09:18.930Z,77.79
2022-11-10T17:12:06.648Z,77.23
2022-11-10T17:14:54.891Z,77.16
2022-11-10T17:17:46.399Z,77.83
2022-11-10T17:20:37.931Z,76.88
2022-11-10T17:23:27.044Z,77.11
2022-11-10T17:26:17.871Z,77.02
2022-11-10T17:29:06.250Z,77.78
2022-11-10T17:31:54.203Z,77.87
2022-11-10T17:34:43.564Z,77.92
2022-11-10T17:37:32.202Z,78.61
2022-11-10T17:40:23.473Z,79.26
2022-11-10T17:43:13.255Z,79.82
2022-11-10T17:46:00.784Z,78.90
2022-11-10T17:48:49.746Z,81.02
2022-11-10T17:51:38.957Z,79.60
2022-11-10T17:54:26.759Z,80.38
2022-11-10T17:57:14.421Z,79.96
2022-11-10T18:00:02.629Z,79.20
2022-11-10T18:02:55.038Z,82.17
2022-11-10T18:05:44.183Z,80.73
2022-11-10T18:08:33.277Z,79.96
2022-11-10T18:11:21.387Z,79.91
2022-11-10T18:14:10.150Z,79.92
2022-11-10T18:16:58.164Z,80.52
2022-11-10T18:19:46.193Z,80.48
2022-11-10T18:22:34.296Z,79.90
2022-11-10T18:25:22.991Z,80.81
2022-11-10T18:28:14.484Z,80.96
2022-11-10T18:31:07.873Z,81.37
2022-11-10T18:33:55.865Z,81.01
2022-11-10T18:36:44.043Z,83.90
2022-11-10T18:39:34.566Z,82.89
2022-11-10T18:42:23.446Z,82.54
2022-11-10T18:45:13.013Z,81.35
2022-11-10T18:48:04.011Z,80.22
2022-11-10T18:50:52.120Z,80.34
2022-11-10T18:53:39.784Z,80.85
2022-11-10T18:56:28.122Z,80.93
2022-11-10T18:59:17.233Z,81.25
2022-11-10T19:02:05.664Z,81.27
2022-11-10T19:04:53.940Z,80.46
2022-11-10T19:07:42.326Z,81.47
2022-11-10T19:10:29.946Z,81.71
2022-11-10T19:13:17.942Z,82.57
2022-11-10T19:16:07.986Z,82.81
2022-11-10T19:18:58.523Z,82.79
2022-11-10T19:21:46.319Z,82.67
2022-11-10T19:24:53.801Z,82.82
2022-11-10T19:27:42.251Z,84.04
2022-11-10T19:30:30.759Z,82.57
2022-11-10T19:33:20.338Z,81.71
2022-11-10T19:36:11.386Z,81.93
2022-11-10T19:38:58.955Z,81.51
2022-11-10T19:41:46.881Z,82.11
2022-11-10T19:44:35.017Z,83.17
2022-11-10T19:47:23.248Z,82.75
2022-11-10T19:50:12.820Z,82.57
2022-11-10T19:53:00.978Z,82.19
2022-11-10T19:55:48.489Z,84.44
2022-11-10T19:58:38.574Z,83.02
2022-11-10T20:01:26.705Z,83.68
2022-11-10T20:04:15.223Z,83.53
2022-11-10T20:07:27.027Z,83.40
2022-11-10T20:10:15.279Z,82.65
2022-11-10T20:13:03.425Z,82.00
2022-11-10T20:15:51.398Z,80.87
2022-11-10T20:18:39.662Z,81.58
2022-11-10T20:21:29.926Z,81.34
2022-11-10T20:24:19.105Z,81.19
2022-11-10T20:27:06.835Z,81.74
2022-11-10T20:29:54.861Z,81.29
2022-11-10T20:32:43.062Z,81.34
2022-11-10T20:35:31.391Z,82.70
2022-11-10T20:38:19.253Z,82.89
2022-11-10T20:41:12.139Z,82.83
2022-11-10T20:44:00.180Z,83.87
2022-11-10T20:46:54.336Z,83.31
2022-11-10T20:49:43.433Z,82.59
2022-11-10T20:52:33.204Z,82.61
2022-11-10T20:55:43.772Z,82.23
2022-11-10T20:58:32.759Z,81.96
2022-11-10T21:01:21.078Z,81.71
2022-11-10T21:04:10.989Z,82.22
2022-11-10T21:06:59.502Z,82.00
2022-11-10T21:09:47.376Z,80.95
2022-11-10T21:12:50.832Z,82.00
2022-11-10T21:15:41.100Z,80.94
2022-11-10T21:18:30.975Z,80.04
2022-11-10T21:21:23.275Z,80.29
2022-11-10T21:24:12.336Z,80.61
2022-11-10T21:27:00.336Z,79.70
2022-11-10T21:29:47.913Z,80.65
2022-11-10T21:32:37.150Z,80.48
2022-11-10T21:35:25.654Z,80.87
2022-11-10T21:38:14.265Z,80.79
2022-11-10T21:41:02.189Z,80.54
2022-11-10T21:43:49.455Z,81.09
2022-11-10T21:46:37.685Z,79.83
2022-11-10T21:49:26.635Z,79.88
2022-11-10T21:52:14.540Z,80.98
2022-11-10T21:55:02.097Z,80.50
2022-11-10T21:57:50.169Z,80.47
2022-11-10T22:00:37.678Z,80.65
2022-11-10T22:03:25.997Z,82.87
2022-11-10T22:06:17.437Z,82.57
2022-11-10T22:09:05.589Z,80.63
2022-11-10T22:12:11.016Z,80.04
2022-11-10T22:15:16.760Z,79.85
2022-11-10T22:18:22.320Z,80.99
2022-11-10T22:21:10.793Z,79.03
2022-11-10T22:24:17.177Z,80.15
2022-11-10T22:27:08.450Z,80.35
2022-11-10T22:29:56.063Z,81.98
2022-11-10T22:32:43.960Z,80.78
2022-11-10T22:35:44.796Z,80.17
2022-11-10T22:38:35.599Z,80.18
2022-11-10T22:41:41.922Z,79.93
2022-11-10T22:44:29.792Z,78.38
2022-11-10T22:47:17.307Z,78.90
2022-11-10T22:50:06.096Z,79.44
2022-11-10T22:52:53.766Z,79.71
2022-11-10T22:55:41.502Z,79.50
2022-11-10T22:58:30.665Z,78.38
2022-11-10T23:01:18.773Z,79.11
2022-11-10T23:04:07.191Z,77.68
2022-11-10T23:06:54.860Z,77.99
2022-11-10T23:09:42.679Z,77.55
2022-11-10T23:12:31.199Z,77.80
2022-11-10T23:15:20.750Z,77.74
2022-11-10T23:18:09.193Z,77.52
2022-11-10T23:21:00.865Z,77.19
2022-11-10T23:23:49.589Z,77.69
2022-11-10T23:26:37.415Z,78.16
2022-11-10T23:29:25.466Z,78.34
2022-11-10T23:32:14.644Z,78.00
2022-11-10T23:35:02.549Z,77.48
2022-11-10T23:37:50.315Z,77.18
2022-11-10T23:40:38.367Z,77.91
2022-11-10T23:43:26.566Z,77.04
2022-11-10T23:46:15.014Z,77.83
2022-11-10T23:49:04.275Z,78.14
2022-11-10T23:51:52.143Z,78.06
2022-11-10T23:54:39.677Z,77.75
2022-11-10T23:57:27.782Z,78.25
